GACFB EGPC-EGPE
Flight info
| Callsign | GACFB |
|---|---|
| Flight time | 0h 50m |
| Altitude | 4000 |
| Route | 5815N00332W 5804N00353W 5750N00408W/N0111F030 |
| Aircraft | C172/L-SDFG/C |
Departure
| Time | 2026-04-21 15:59 |
|---|---|
| Airport | Wick John O'Groats Airport (EGPC) |
Arrival
| Time | 2026-04-21 16:49 |
|---|---|
| Airport | Inverness Airport (EGPE) |
| Time | Latitude | Longitude | Altitude | Speed | Heading |
|---|---|---|---|---|---|
| 2026-04-21 15:40 | 58.45412 | -3.08800 | 119 ft | 0 kts | 130° |
| 2026-04-21 15:50 | 58.45412 | -3.08798 | 119 ft | 1 kts | 136° |
| 2026-04-21 15:50 | 58.45405 | -3.08798 | 119 ft | 0 kts | 258° |
| 2026-04-21 15:50 | 58.45385 | -3.08859 | 119 ft | 9 kts | 216° |
| 2026-04-21 15:51 | 58.45345 | -3.08884 | 119 ft | 3 kts | 248° |
| 2026-04-21 15:51 | 58.45355 | -3.08932 | 119 ft | 2 kts | 322° |
| 2026-04-21 15:51 | 58.45358 | -3.08995 | 119 ft | 12 kts | 231° |
| 2026-04-21 15:51 | 58.45290 | -3.09196 | 114 ft | 22 kts | 250° |
| 2026-04-21 15:52 | 58.45254 | -3.09416 | 109 ft | 21 kts | 249° |
| 2026-04-21 15:52 | 58.45241 | -3.09656 | 104 ft | 16 kts | 266° |
| 2026-04-21 15:52 | 58.45265 | -3.09872 | 98 ft | 17 kts | 285° |
| 2026-04-21 15:52 | 58.45329 | -3.10078 | 94 ft | 17 kts | 316° |
| 2026-04-21 15:53 | 58.45400 | -3.10197 | 94 ft | 12 kts | 318° |
| 2026-04-21 15:53 | 58.45463 | -3.10312 | 95 ft | 12 kts | 317° |
| 2026-04-21 15:53 | 58.45507 | -3.10373 | 96 ft | 0 kts | 338° |
| 2026-04-21 15:54 | 58.45511 | -3.10377 | 96 ft | 1 kts | 340° |
| 2026-04-21 15:54 | 58.45547 | -3.10379 | 97 ft | 6 kts | 33° |
| 2026-04-21 15:54 | 58.45562 | -3.10325 | 98 ft | 0 kts | 73° |
| 2026-04-21 15:55 | 58.45562 | -3.10324 | 98 ft | 0 kts | 95° |
| 2026-04-21 15:55 | 58.45553 | -3.10348 | 98 ft | 6 kts | 276° |
| 2026-04-21 15:55 | 58.45590 | -3.10367 | 99 ft | 14 kts | 4° |
| 2026-04-21 15:55 | 58.45729 | -3.10301 | 105 ft | 24 kts | 14° |
| 2026-04-21 15:56 | 58.45895 | -3.10194 | 110 ft | 26 kts | 20° |
| 2026-04-21 15:56 | 58.45987 | -3.10139 | 115 ft | 10 kts | 327° |
| 2026-04-21 15:56 | 58.46043 | -3.10268 | 112 ft | 16 kts | 303° |
| 2026-04-21 15:56 | 58.46120 | -3.10474 | 110 ft | 20 kts | 308° |
| 2026-04-21 15:57 | 58.46234 | -3.10640 | 107 ft | 21 kts | 356° |
| 2026-04-21 15:57 | 58.46321 | -3.10613 | 107 ft | 0 kts | 24° |
| 2026-04-21 15:58 | 58.46324 | -3.10610 | 107 ft | 3 kts | 32° |
| 2026-04-21 15:58 | 58.46340 | -3.10498 | 109 ft | 21 kts | 113° |
| 2026-04-21 15:58 | 58.46145 | -3.09925 | 200 ft | 63 kts | 130° |
| 2026-04-21 15:58 | 58.45867 | -3.09567 | 452 ft | 57 kts | 158° |
| 2026-04-21 15:59 | 58.45403 | -3.09243 | 669 ft | 65 kts | 160° |
| 2026-04-21 15:59 | 58.44947 | -3.09001 | 876 ft | 76 kts | 180° |
| 2026-04-21 15:59 | 58.44441 | -3.09398 | 1084 ft | 85 kts | 223° |
| 2026-04-21 15:59 | 58.44152 | -3.10437 | 1292 ft | 93 kts | 252° |
| 2026-04-21 16:00 | 58.43943 | -3.11643 | 1497 ft | 98 kts | 250° |
| 2026-04-21 16:00 | 58.43680 | -3.12853 | 1698 ft | 101 kts | 245° |
| 2026-04-21 16:00 | 58.43353 | -3.14078 | 1903 ft | 103 kts | 241° |
| 2026-04-21 16:00 | 58.42973 | -3.15300 | 1993 ft | 114 kts | 238° |
| 2026-04-21 16:01 | 58.42516 | -3.16621 | 2075 ft | 118 kts | 235° |
| 2026-04-21 16:01 | 58.42048 | -3.17863 | 2245 ft | 115 kts | 233° |
| 2026-04-21 16:01 | 58.41565 | -3.19071 | 2418 ft | 113 kts | 232° |
| 2026-04-21 16:01 | 58.41077 | -3.20244 | 2593 ft | 112 kts | 231° |
| 2026-04-21 16:02 | 58.40590 | -3.21385 | 2766 ft | 111 kts | 230° |
| 2026-04-21 16:02 | 58.40098 | -3.22514 | 2940 ft | 110 kts | 230° |
| 2026-04-21 16:02 | 58.39599 | -3.23643 | 3116 ft | 110 kts | 230° |
| 2026-04-21 16:02 | 58.39111 | -3.24738 | 3289 ft | 109 kts | 229° |
| 2026-04-21 16:03 | 58.38621 | -3.25829 | 3462 ft | 106 kts | 229° |
| 2026-04-21 16:03 | 58.38141 | -3.26891 | 3636 ft | 106 kts | 229° |
| 2026-04-21 16:03 | 58.37655 | -3.27962 | 3812 ft | 106 kts | 229° |
| 2026-04-21 16:03 | 58.37174 | -3.29020 | 3985 ft | 106 kts | 229° |
| 2026-04-21 16:04 | 58.36688 | -3.30086 | 4160 ft | 106 kts | 229° |
| 2026-04-21 16:04 | 58.36207 | -3.31141 | 4334 ft | 106 kts | 229° |
| 2026-04-21 16:04 | 58.35725 | -3.32195 | 4508 ft | 105 kts | 229° |
| 2026-04-21 16:04 | 58.35241 | -3.33252 | 4684 ft | 105 kts | 229° |
| 2026-04-21 16:05 | 58.34762 | -3.34298 | 4859 ft | 104 kts | 229° |
| 2026-04-21 16:05 | 58.34280 | -3.35350 | 4983 ft | 109 kts | 229° |
| 2026-04-21 16:05 | 58.33759 | -3.36487 | 5001 ft | 119 kts | 229° |
| 2026-04-21 16:05 | 58.33203 | -3.37702 | 5002 ft | 125 kts | 229° |
| 2026-04-21 16:06 | 58.32623 | -3.38969 | 5001 ft | 128 kts | 229° |
| 2026-04-21 16:06 | 58.32037 | -3.40248 | 5000 ft | 128 kts | 229° |
| 2026-04-21 16:06 | 58.31447 | -3.41534 | 5000 ft | 128 kts | 229° |
| 2026-04-21 16:06 | 58.30860 | -3.42810 | 4999 ft | 128 kts | 229° |
| 2026-04-21 16:07 | 58.30272 | -3.44089 | 4999 ft | 128 kts | 229° |
| 2026-04-21 16:07 | 58.29688 | -3.45358 | 4999 ft | 128 kts | 229° |
| 2026-04-21 16:07 | 58.29098 | -3.46639 | 4999 ft | 128 kts | 229° |
| 2026-04-21 16:07 | 58.28508 | -3.47919 | 4999 ft | 128 kts | 229° |
| 2026-04-21 16:08 | 58.27334 | -3.50462 | 4999 ft | 128 kts | 229° |
| 2026-04-21 16:08 | 58.26746 | -3.51737 | 4999 ft | 128 kts | 229° |
| 2026-04-21 16:08 | 58.26152 | -3.53021 | 4999 ft | 128 kts | 229° |
| 2026-04-21 16:09 | 58.25548 | -3.54277 | 5000 ft | 128 kts | 226° |
| 2026-04-21 16:09 | 58.24933 | -3.55482 | 5000 ft | 128 kts | 226° |
| 2026-04-21 16:09 | 58.24307 | -3.56695 | 4999 ft | 128 kts | 226° |
| 2026-04-21 16:09 | 58.23681 | -3.57903 | 4999 ft | 128 kts | 226° |
| 2026-04-21 16:10 | 58.23054 | -3.59112 | 4999 ft | 128 kts | 226° |
| 2026-04-21 16:10 | 58.22427 | -3.60319 | 4999 ft | 128 kts | 226° |
| 2026-04-21 16:10 | 58.21805 | -3.61515 | 4999 ft | 128 kts | 226° |
| 2026-04-21 16:10 | 58.21176 | -3.62722 | 4999 ft | 128 kts | 226° |
| 2026-04-21 16:11 | 58.20548 | -3.63927 | 4999 ft | 128 kts | 226° |
| 2026-04-21 16:11 | 58.19918 | -3.65134 | 4999 ft | 128 kts | 225° |
| 2026-04-21 16:11 | 58.19287 | -3.66343 | 4999 ft | 128 kts | 225° |
| 2026-04-21 16:11 | 58.18659 | -3.67545 | 4999 ft | 128 kts | 225° |
| 2026-04-21 16:12 | 58.18243 | -3.68342 | 4999 ft | 128 kts | 225° |
| 2026-04-21 16:12 | 58.17405 | -3.69945 | 4999 ft | 128 kts | 225° |
| 2026-04-21 16:12 | 58.16776 | -3.71146 | 4999 ft | 128 kts | 225° |
| 2026-04-21 16:12 | 58.16148 | -3.72344 | 4999 ft | 128 kts | 225° |
| 2026-04-21 16:13 | 58.15517 | -3.73548 | 4999 ft | 128 kts | 225° |
| 2026-04-21 16:13 | 58.14888 | -3.74749 | 4999 ft | 128 kts | 225° |
| 2026-04-21 16:13 | 58.14262 | -3.75942 | 4999 ft | 128 kts | 225° |
| 2026-04-21 16:13 | 58.13632 | -3.77143 | 4999 ft | 128 kts | 225° |
| 2026-04-21 16:14 | 58.13007 | -3.78334 | 4999 ft | 128 kts | 225° |
| 2026-04-21 16:14 | 58.12371 | -3.79545 | 4999 ft | 128 kts | 225° |
| 2026-04-21 16:14 | 58.11743 | -3.80739 | 4999 ft | 128 kts | 225° |
| 2026-04-21 16:14 | 58.11115 | -3.81933 | 4999 ft | 128 kts | 225° |
| 2026-04-21 16:15 | 58.10484 | -3.83132 | 4999 ft | 128 kts | 225° |
| 2026-04-21 16:15 | 58.09858 | -3.84321 | 4999 ft | 128 kts | 225° |
| 2026-04-21 16:15 | 58.09226 | -3.85522 | 4999 ft | 128 kts | 225° |
| 2026-04-21 16:15 | 58.08596 | -3.86717 | 4999 ft | 128 kts | 225° |
| 2026-04-21 16:16 | 58.07968 | -3.87910 | 4999 ft | 128 kts | 225° |
| 2026-04-21 16:16 | 58.07299 | -3.89031 | 4999 ft | 128 kts | 214° |
| 2026-04-21 16:16 | 58.06556 | -3.89948 | 5000 ft | 128 kts | 212° |
| 2026-04-21 16:16 | 58.05794 | -3.90826 | 5000 ft | 128 kts | 211° |
| 2026-04-21 16:17 | 58.05024 | -3.91691 | 5000 ft | 128 kts | 210° |
| 2026-04-21 16:17 | 58.04256 | -3.92543 | 5000 ft | 128 kts | 210° |
| 2026-04-21 16:17 | 58.03479 | -3.93392 | 5000 ft | 128 kts | 209° |
| 2026-04-21 16:17 | 58.02692 | -3.94174 | 5000 ft | 128 kts | 206° |
| 2026-04-21 16:18 | 58.01890 | -3.94879 | 5000 ft | 128 kts | 204° |
| 2026-04-21 16:18 | 58.01069 | -3.95560 | 5000 ft | 128 kts | 203° |
| 2026-04-21 16:18 | 58.00251 | -3.96249 | 4999 ft | 128 kts | 205° |
| 2026-04-21 16:18 | 57.99456 | -3.96991 | 4999 ft | 128 kts | 207° |
| 2026-04-21 16:19 | 57.98664 | -3.97798 | 4999 ft | 128 kts | 208° |
| 2026-04-21 16:19 | 57.97889 | -3.98616 | 4999 ft | 128 kts | 209° |
| 2026-04-21 16:19 | 57.97116 | -3.99441 | 4999 ft | 128 kts | 209° |
| 2026-04-21 16:19 | 57.96342 | -4.00271 | 4999 ft | 128 kts | 209° |
| 2026-04-21 16:20 | 57.95562 | -4.01106 | 4999 ft | 128 kts | 209° |
| 2026-04-21 16:20 | 57.94787 | -4.01937 | 4999 ft | 128 kts | 209° |
| 2026-04-21 16:20 | 57.94012 | -4.02766 | 4999 ft | 128 kts | 209° |
| 2026-04-21 16:20 | 57.93232 | -4.03602 | 4999 ft | 128 kts | 209° |
| 2026-04-21 16:21 | 57.92456 | -4.04432 | 4999 ft | 128 kts | 209° |
| 2026-04-21 16:21 | 57.91686 | -4.05255 | 4999 ft | 128 kts | 209° |
| 2026-04-21 16:21 | 57.90907 | -4.06088 | 4999 ft | 128 kts | 209° |
| 2026-04-21 16:21 | 57.90130 | -4.06918 | 4999 ft | 128 kts | 209° |
| 2026-04-21 16:22 | 57.89351 | -4.07750 | 4999 ft | 128 kts | 209° |
| 2026-04-21 16:22 | 57.88580 | -4.08573 | 4999 ft | 128 kts | 209° |
| 2026-04-21 16:22 | 57.87806 | -4.09399 | 4999 ft | 128 kts | 209° |
| 2026-04-21 16:22 | 57.87027 | -4.10229 | 4999 ft | 128 kts | 209° |
| 2026-04-21 16:23 | 57.86251 | -4.11055 | 4999 ft | 128 kts | 209° |
| 2026-04-21 16:23 | 57.85471 | -4.11886 | 4999 ft | 128 kts | 209° |
| 2026-04-21 16:23 | 57.84690 | -4.12718 | 4999 ft | 128 kts | 209° |
| 2026-04-21 16:23 | 57.83897 | -4.13450 | 4998 ft | 128 kts | 198° |
| 2026-04-21 16:24 | 57.83022 | -4.13706 | 4999 ft | 128 kts | 182° |
| 2026-04-21 16:24 | 57.82124 | -4.13628 | 5000 ft | 128 kts | 174° |
| 2026-04-21 16:24 | 57.81237 | -4.13417 | 5000 ft | 128 kts | 172° |
| 2026-04-21 16:24 | 57.80361 | -4.13169 | 5000 ft | 128 kts | 171° |
| 2026-04-21 16:25 | 57.79483 | -4.12911 | 4999 ft | 128 kts | 171° |
| 2026-04-21 16:25 | 57.78599 | -4.12649 | 4999 ft | 128 kts | 171° |
| 2026-04-21 16:25 | 57.77721 | -4.12389 | 4999 ft | 128 kts | 171° |
| 2026-04-21 16:25 | 57.76834 | -4.12125 | 4999 ft | 128 kts | 171° |
| 2026-04-21 16:26 | 57.75960 | -4.12254 | 4993 ft | 128 kts | 206° |
| 2026-04-21 16:26 | 57.75378 | -4.13461 | 4993 ft | 128 kts | 249° |
| 2026-04-21 16:26 | 57.75398 | -4.15089 | 4993 ft | 128 kts | 292° |
| 2026-04-21 16:26 | 57.76017 | -4.16249 | 4993 ft | 128 kts | 336° |
| 2026-04-21 16:27 | 57.76889 | -4.16438 | 4999 ft | 128 kts | 2° |
| 2026-04-21 16:27 | 57.77790 | -4.16332 | 4999 ft | 128 kts | 4° |
| 2026-04-21 16:27 | 57.78677 | -4.16375 | 4999 ft | 128 kts | 349° |
| 2026-04-21 16:27 | 57.79497 | -4.16975 | 4999 ft | 128 kts | 330° |
| 2026-04-21 16:28 | 57.80232 | -4.17936 | 5000 ft | 128 kts | 321° |
| 2026-04-21 16:28 | 57.80907 | -4.19016 | 5000 ft | 128 kts | 318° |
| 2026-04-21 16:28 | 57.81578 | -4.20151 | 4841 ft | 130 kts | 318° |
| 2026-04-21 16:28 | 57.82243 | -4.21294 | 4665 ft | 129 kts | 317° |
| 2026-04-21 16:29 | 57.82899 | -4.22426 | 4490 ft | 128 kts | 317° |
| 2026-04-21 16:29 | 57.83552 | -4.23556 | 4314 ft | 127 kts | 317° |
| 2026-04-21 16:29 | 57.84198 | -4.24675 | 4140 ft | 127 kts | 317° |
| 2026-04-21 16:29 | 57.84842 | -4.25791 | 3965 ft | 126 kts | 317° |
| 2026-04-21 16:30 | 57.85488 | -4.26912 | 3790 ft | 126 kts | 317° |
| 2026-04-21 16:30 | 57.86135 | -4.28035 | 3614 ft | 126 kts | 317° |
| 2026-04-21 16:30 | 57.86771 | -4.29141 | 3512 ft | 124 kts | 317° |
| 2026-04-21 16:30 | 57.87405 | -4.30244 | 3501 ft | 124 kts | 317° |
| 2026-04-21 16:31 | 57.88033 | -4.31340 | 3500 ft | 125 kts | 317° |
| 2026-04-21 16:31 | 57.88577 | -4.32592 | 3494 ft | 125 kts | 290° |
| 2026-04-21 16:31 | 57.88544 | -4.34189 | 3496 ft | 125 kts | 246° |
| 2026-04-21 16:31 | 57.87926 | -4.35305 | 3496 ft | 125 kts | 202° |
| 2026-04-21 16:32 | 57.87082 | -4.35308 | 3496 ft | 125 kts | 159° |
| 2026-04-21 16:32 | 57.86341 | -4.34424 | 3500 ft | 125 kts | 143° |
| 2026-04-21 16:32 | 57.85654 | -4.33419 | 3500 ft | 125 kts | 142° |
| 2026-04-21 16:32 | 57.84965 | -4.32395 | 3499 ft | 125 kts | 142° |
| 2026-04-21 16:33 | 57.84290 | -4.31389 | 3499 ft | 125 kts | 142° |
| 2026-04-21 16:33 | 57.83569 | -4.30444 | 3499 ft | 125 kts | 148° |
| 2026-04-21 16:33 | 57.82807 | -4.29642 | 3499 ft | 125 kts | 153° |
| 2026-04-21 16:33 | 57.82023 | -4.28910 | 3499 ft | 125 kts | 154° |
| 2026-04-21 16:34 | 57.81243 | -4.28215 | 3499 ft | 125 kts | 155° |
| 2026-04-21 16:34 | 57.80907 | -4.27921 | 3499 ft | 125 kts | 155° |
| 2026-04-21 16:34 | 57.80113 | -4.27227 | 3499 ft | 125 kts | 155° |
| 2026-04-21 16:34 | 57.79327 | -4.26542 | 3500 ft | 125 kts | 155° |
| 2026-04-21 16:35 | 57.78536 | -4.25854 | 3500 ft | 125 kts | 155° |
| 2026-04-21 16:35 | 57.77740 | -4.25162 | 3500 ft | 125 kts | 155° |
| 2026-04-21 16:35 | 57.76956 | -4.24481 | 3499 ft | 125 kts | 155° |
| 2026-04-21 16:35 | 57.76159 | -4.23789 | 3499 ft | 125 kts | 155° |
| 2026-04-21 16:36 | 57.75370 | -4.23103 | 3499 ft | 125 kts | 155° |
| 2026-04-21 16:36 | 57.74572 | -4.22411 | 3499 ft | 125 kts | 155° |
| 2026-04-21 16:36 | 57.73779 | -4.21724 | 3499 ft | 125 kts | 155° |
| 2026-04-21 16:36 | 57.72941 | -4.21461 | 3494 ft | 125 kts | 192° |
| 2026-04-21 16:37 | 57.72223 | -4.22345 | 3497 ft | 125 kts | 230° |
| 2026-04-21 16:37 | 57.71739 | -4.23683 | 3499 ft | 125 kts | 239° |
| 2026-04-21 16:37 | 57.71276 | -4.25086 | 3500 ft | 125 kts | 237° |
| 2026-04-21 16:37 | 57.70787 | -4.26438 | 3500 ft | 125 kts | 234° |
| 2026-04-21 16:38 | 57.70264 | -4.27742 | 3500 ft | 125 kts | 232° |
| 2026-04-21 16:38 | 57.69709 | -4.29000 | 3500 ft | 125 kts | 229° |
| 2026-04-21 16:38 | 57.69123 | -4.30212 | 3500 ft | 125 kts | 227° |
| 2026-04-21 16:38 | 57.68509 | -4.31379 | 3500 ft | 125 kts | 224° |
| 2026-04-21 16:39 | 57.67873 | -4.32487 | 3500 ft | 125 kts | 222° |
| 2026-04-21 16:39 | 57.67211 | -4.33544 | 3482 ft | 127 kts | 219° |
| 2026-04-21 16:39 | 57.66517 | -4.34564 | 3305 ft | 127 kts | 217° |
| 2026-04-21 16:39 | 57.65803 | -4.35520 | 3129 ft | 126 kts | 214° |
| 2026-04-21 16:40 | 57.65072 | -4.36412 | 2953 ft | 125 kts | 212° |
| 2026-04-21 16:40 | 57.64332 | -4.37231 | 2779 ft | 124 kts | 210° |
| 2026-04-21 16:40 | 57.63577 | -4.37986 | 2708 ft | 122 kts | 207° |
| 2026-04-21 16:40 | 57.62809 | -4.38677 | 2701 ft | 123 kts | 205° |
| 2026-04-21 16:41 | 57.62017 | -4.39315 | 2700 ft | 123 kts | 202° |
| 2026-04-21 16:41 | 57.61215 | -4.39889 | 2700 ft | 124 kts | 200° |
| 2026-04-21 16:41 | 57.60400 | -4.40399 | 2700 ft | 124 kts | 198° |
| 2026-04-21 16:41 | 57.59571 | -4.40846 | 2700 ft | 124 kts | 195° |
| 2026-04-21 16:42 | 57.58739 | -4.41225 | 2700 ft | 124 kts | 193° |
| 2026-04-21 16:42 | 57.57896 | -4.41540 | 2700 ft | 124 kts | 190° |
| 2026-04-21 16:42 | 57.57044 | -4.41788 | 2700 ft | 124 kts | 188° |
| 2026-04-21 16:42 | 57.56183 | -4.41970 | 2700 ft | 124 kts | 185° |
| 2026-04-21 16:43 | 57.55320 | -4.42083 | 2700 ft | 124 kts | 183° |
| 2026-04-21 16:43 | 57.54460 | -4.42127 | 2700 ft | 124 kts | 180° |
| 2026-04-21 16:43 | 57.53598 | -4.42104 | 2700 ft | 124 kts | 178° |
| 2026-04-21 16:43 | 57.52742 | -4.42014 | 2700 ft | 124 kts | 176° |
| 2026-04-21 16:44 | 57.51873 | -4.41854 | 2625 ft | 126 kts | 173° |
| 2026-04-21 16:44 | 57.51022 | -4.41633 | 2448 ft | 119 kts | 171° |
| 2026-04-21 16:44 | 57.50234 | -4.41363 | 2271 ft | 114 kts | 169° |
| 2026-04-21 16:44 | 57.49461 | -4.41039 | 2094 ft | 113 kts | 166° |
| 2026-04-21 16:45 | 57.48711 | -4.40666 | 1996 ft | 111 kts | 164° |
| 2026-04-21 16:45 | 57.47974 | -4.40245 | 1922 ft | 112 kts | 162° |
| 2026-04-21 16:45 | 57.47241 | -4.39769 | 1847 ft | 112 kts | 160° |
| 2026-04-21 16:45 | 57.46519 | -4.39243 | 1772 ft | 112 kts | 158° |
| 2026-04-21 16:46 | 57.45810 | -4.38669 | 1673 ft | 107 kts | 156° |
| 2026-04-21 16:46 | 57.45157 | -4.38079 | 1569 ft | 103 kts | 151° |
| 2026-04-21 16:46 | 57.44733 | -4.37054 | 1507 ft | 101 kts | 108° |
| 2026-04-21 16:46 | 57.44581 | -4.35785 | 1458 ft | 101 kts | 100° |
| 2026-04-21 16:47 | 57.44462 | -4.34510 | 1409 ft | 101 kts | 100° |
| 2026-04-21 16:47 | 57.44344 | -4.33209 | 1359 ft | 101 kts | 100° |
| 2026-04-21 16:47 | 57.44226 | -4.31913 | 1308 ft | 101 kts | 100° |
| 2026-04-21 16:47 | 57.44168 | -4.30621 | 1225 ft | 102 kts | 90° |
| 2026-04-21 16:48 | 57.44218 | -4.29325 | 1095 ft | 96 kts | 82° |
| 2026-04-21 16:48 | 57.44371 | -4.28183 | 988 ft | 82 kts | 71° |
| 2026-04-21 16:48 | 57.44606 | -4.27222 | 862 ft | 80 kts | 62° |
| 2026-04-21 16:48 | 57.44901 | -4.26346 | 739 ft | 79 kts | 55° |
| 2026-04-21 16:49 | 57.45224 | -4.25522 | 605 ft | 80 kts | 53° |
| 2026-04-21 16:49 | 57.45546 | -4.24697 | 508 ft | 80 kts | 55° |
| 2026-04-21 16:49 | 57.45874 | -4.23861 | 430 ft | 77 kts | 51° |
| 2026-04-21 16:49 | 57.46114 | -4.23122 | 562 ft | 48 kts | 69° |
| 2026-04-21 16:50 | 57.46237 | -4.22385 | 502 ft | 69 kts | 73° |
| 2026-04-21 16:50 | 57.46423 | -4.21543 | 594 ft | 69 kts | 70° |
| 2026-04-21 16:50 | 57.46554 | -4.20703 | 699 ft | 69 kts | 78° |
| 2026-04-21 16:50 | 57.46623 | -4.19915 | 864 ft | 57 kts | 97° |
| 2026-04-21 16:51 | 57.46682 | -4.19283 | 1004 ft | 47 kts | 57° |
| 2026-04-21 16:51 | 57.46975 | -4.18769 | 1059 ft | 55 kts | 30° |
| 2026-04-21 16:51 | 57.47229 | -4.18191 | 1120 ft | 61 kts | 75° |
| 2026-04-21 16:51 | 57.47398 | -4.17448 | 1245 ft | 70 kts | 53° |
| 2026-04-21 16:52 | 57.47768 | -4.16757 | 1374 ft | 83 kts | 45° |
| 2026-04-21 16:52 | 57.48293 | -4.16024 | 1283 ft | 100 kts | 35° |
| 2026-04-21 16:52 | 57.48837 | -4.15234 | 1260 ft | 98 kts | 40° |
| 2026-04-21 16:52 | 57.49293 | -4.14481 | 1380 ft | 79 kts | 41° |
| 2026-04-21 16:53 | 57.49691 | -4.13921 | 1476 ft | 65 kts | 30° |
| 2026-04-21 16:53 | 57.50137 | -4.13367 | 1273 ft | 84 kts | 36° |
| 2026-04-21 16:53 | 57.50635 | -4.12693 | 943 ft | 92 kts | 36° |
| 2026-04-21 16:53 | 57.51056 | -4.12002 | 904 ft | 68 kts | 49° |
| 2026-04-21 16:54 | 57.51341 | -4.11247 | 789 ft | 70 kts | 58° |
| 2026-04-21 16:54 | 57.51614 | -4.10522 | 697 ft | 70 kts | 50° |
| 2026-04-21 16:54 | 57.51910 | -4.09863 | 611 ft | 62 kts | 50° |
| 2026-04-21 16:54 | 57.52161 | -4.09306 | 496 ft | 54 kts | 50° |
| 2026-04-21 16:55 | 57.52399 | -4.08788 | 386 ft | 53 kts | 48° |
| 2026-04-21 16:55 | 57.52653 | -4.08274 | 328 ft | 53 kts | 47° |
| 2026-04-21 16:55 | 57.52894 | -4.07744 | 293 ft | 54 kts | 54° |
| 2026-04-21 16:55 | 57.53118 | -4.07207 | 252 ft | 50 kts | 45° |
| 2026-04-21 16:56 | 57.53360 | -4.06722 | 181 ft | 51 kts | 48° |
| 2026-04-21 16:56 | 57.53577 | -4.06206 | 111 ft | 50 kts | 50° |
| 2026-04-21 16:56 | 57.53813 | -4.05722 | 40 ft | 50 kts | 50° |
| 2026-04-21 16:56 | 57.53978 | -4.05361 | 27 ft | 26 kts | 45° |
| 2026-04-21 16:57 | 57.54111 | -4.05015 | 27 ft | 24 kts | 60° |
| 2026-04-21 16:57 | 57.54161 | -4.04865 | 27 ft | 5 kts | 194° |
| 2026-04-21 16:57 | 57.54046 | -4.04872 | 27 ft | 28 kts | 182° |
| 2026-04-21 16:57 | 57.53875 | -4.04841 | 27 ft | 13 kts | 124° |
| 2026-04-21 16:58 | 57.53864 | -4.04842 | 27 ft | 0 kts | 347° |